AirNav   Pilot Hours Calculator
 
 1738 users online  

MU61 Belton Regional Medical Center Heliport
Belton, Missouri, USA

GOING TO BELTON?


FAA INFORMATION EFFECTIVE 17 JUNE 2021

Location

FAA Identifier: MU61
Lat/Long: 38-48-59.9300N 094-30-12.8900W
38-48.998833N 094-30.214833W
38.8166472,-94.5035806
(estimated)
Elevation: 1070 ft. / 326 m (estimated)
Variation: 05E (1980)
From city: 5 miles E of BELTON, MO
Time zone: UTC -5 (UTC -6 during Standard Time)
Zip code: 64012

Heliport Operations

Heliport use: Private use, MEDICAL.
Activation date: 10/1986
Control tower: no
ARTCC: KANSAS CITY CENTER
FSS: COLUMBIA FLIGHT SERVICE STATION
Attendance: UNATNDD
Wind indicator: yes
Segmented circle: no
Lights: FOR PERIMETER LGTS CALL 816-348-1200.

Heliport Communications

WX ASOS at LXT (11 nm NE): 124.175 (816-347-9807)
WX ASOS at OJC (11 nm W): PHONE 913-780-6969
WX AWOS-3PT at LRY (14 nm SE): 119.975 (816-380-5936)
WX ASOS at IXD (18 nm W): 135.325 (913-780-6987)
WX ASOS at MKC (19 nm N): PHONE 816-329-2843

Nearby radio navigation aids

VOR radial/distance  VOR name  Freq  Var
ANXr219/24.2NAPOLEON VORTAC114.0007E
MCIr154/30.1KANSAS CITY VORTAC113.2505E
BUMr352/32.7BUTLER VORTAC115.9007E

 
NDB name  Hdg/Dist  Freq  Var  ID
HERBB067/11.642004EPK .--. -.-

Heliport Services

Runway Information

Helipad H1

Dimensions: 40 x 40 ft. / 12 x 12 m
Surface: concrete
Runway edge lights: PERI
Latitude: 38-48.998833N
Longitude: 094-30.214833W
Elevation: 1070.0 ft.
Traffic pattern: leftleft

Heliport Ownership and Management from official FAA records

Ownership: Privately-owned
Owner: BELTON REGIONAL MEDICAL CENTER
17065 SOUTH 71 HWY
BELTON, MO 64012
Phone 816-348-1200
Manager: DAVID ROBINSON
17065 SOUTH 71 HWY
BELTON, MO 64012
Phone 816-348-1200

Additional Remarks

FOR CD CTC KANSAS CITY APCH AT 816-329-2710.

Instrument Procedures

There are no published instrument procedures at MU61.

Some nearby airports with instrument procedures:

KLXT - Lee's Summit Municipal Airport (11 nm NE)
KOJC - Johnson County Executive Airport (11 nm W)
KLRY - Lawrence Smith Memorial Airport (14 nm SE)
3GV - East Kansas City Airport (18 nm NE)
KIXD - New Century AirCenter Airport (18 nm W)
KMKC - Charles B Wheeler Downtown Airport (19 nm N)
 
Loc | Ops | Rwys | IFR | FBO | Links
Com | Nav | Svcs | Stats | Notes
Area around MU61 (Belton Regional Medical Center Heliport)
 
Road maps at: MapQuest Bing Google
 
Aerial photo
No photo
 
Sectional chart

 
Airport distance calculator
Flying to Belton Regional Medical Center Heliport? Find the distance to fly.

From to MU61

Sunrise and sunset
Times for 24-Jun-2021
 Local
(UTC-5)
 Zulu
(UTC)
Morning civil twilight05:2310:23
Sunrise05:5510:55
Sunset20:4601:46
Evening civil twilight21:1802:18

Current date and time
Zulu (UTC)  24-Jun-2021 18:08:40
Local (UTC-5)  24-Jun-2021 13:08:40
 
METAR
KOJC 
11nm W 
241753Z 15010KT 10SM FEW022 27/23 A2986 RMK AO2 PRESFR SLP098 60027 T02670228 10267 20233 55010
KLXT 
11nm NE 
241753Z AUTO 15011KT 10SM BKN011 25/23 A2988 RMK AO2 LTG DSNT N SLP109 60035 T02500228 10256 20233 56021
KLRY 
14nm SE 
241755Z AUTO 13005KT 10SM CLR 25/21 A2991 RMK AO2
KIXD 
18nm W 
241753Z 15010G22KT 10SM FEW017 28/23 A2988 RMK AO2 SLP104 60038 T02780228 10278 20239 58012
KMKC 
19nm N 
241754Z 14012G23KT 10SM BKN020 BKN025 OVC030 27/22 A2987 RMK AO2 LTG DSNT N AND NE SLP104 60009 T02670222 10278 20228 55010
TAF
KIXD 
18nm W 
241738Z 2418/2518 14008G17KT P6SM BKN015 FM241900 18013G21KT P6SM SCT030 BKN060 FM250000 18011KT P6SM VCTS SCT030 BKN060CB TEMPO 2501/2504 2SM TSRA BR OVC025CB FM250500 16013KT P6SM VCTS BKN040CB FM251000 20008KT P6SM BKN070
KMKC 
19nm N 
241738Z 2418/2518 14012G21KT P6SM SCT016 BKN021 FM241900 18013G21KT P6SM SCT030 BKN060 FM250000 18011KT P6SM VCTS SCT030 BKN060CB TEMPO 2501/2504 2SM TSRA BR OVC025CB FM250500 16013KT P6SM VCTS BKN040CB FM251000 20008KT P6SM BKN070
NOTAMs
Click for the latest NOTAMs
NOTAMs are issued by the DoD/FAA and will open in a separate window not controlled by AirNav.

 

 
 

Would you like to see your business listed on this page?

 If your business provides an interesting product or service to pilots, flight crews, aircraft, or users of the Belton Regional Medical Center Heliport, you should consider listing it here.  To start the listing process, click on the button below
 
Add a business
 

Other Pages about Belton Regional Medical Center Heliport

Update a link
 
Copyright © AirNav, LLC. All rights reserved. Privacy Policy  Contact